map of LFQA home
LFQA - Airport
Location
City:  Reims, Champagne-Ardenne, France
Name:Prunay
ICAO:LFQA

Details
Type:Airport (Aerodrome, Airfield)
Use:Public/Civil
Latitude:4912'31"N (49.208689)
Longitude:409'24"E (4.156581)
Elevation:313 ft (95 m)
Variation:1.45E (WMM2015v2 magnetic declination)
0.17 annual change
Runways:2
Longest:3839 × 262 ft (1170 × 80 m)

Time
Time Zone:UTC+1 (DST+2)
Local Time:

Weather
METAR:LFQA 041400Z AUTO VRB02KT CAVOK 03/M01 Q1026

Related Locations
Nearby:
Farthest:CHT: 12056 mi / 19402 km
Waitangi [Tuuta], CIT, NZ

Find:

   beyond  
but within

Other Information
Maps:
NOTAMs:
Links:
Sources:

  
  • flag of France
  • flag of Champagne-Ardenne
  

Sectional Chart

Flight Planning
at skyvector.com

Satellite Image

Google Maps Satellite view

 

Copyright © 2004-2019 Karl L. Swartz. All rights reserved.
The Great Circle Mapper name and logo are trademarks of the Great Circle Mapper.
All other trademarks mentioned herein belong to their respective owners.
Please see credits for attibutions and further copyright information.

  Follow gcmap on Facebook Follow gcmap on Twitter GCmap on LinkedIn

hCard Microformat

Geo Microformat